Terminal Aerodrome Forecast
Issued by NWS Sterling, VA

Home | Current Version | Previous Version | Text Only | Print | Product List | Glossary On
Versions: 1 2 3 4 5 6 7 8 9 10 11 12
000
FTUS41 KLWX 302335
TAFMRB
TAF
KMRB 302335Z 3100/3124 VRB03KT P6SM FEW250
     FM310900 00000KT 5SM BR FEW140
     FM311200 00000KT P6SM SCT050
     FM311600 20005KT P6SM SCT050
     FM312000 18005KT P6SM BKN040=

USA.gov is the U.S. government's official web portal to all federal, state and local government web resources and services.